createdAt,value
2022-07-25T00:00:47.619Z,101174.20
2022-07-25T00:06:13.029Z,101173.20
2022-07-25T00:11:35.354Z,101170.20
2022-07-25T00:16:57.764Z,101154.09
2022-07-25T00:22:19.973Z,101156.51
2022-07-25T00:27:42.819Z,101144.80
2022-07-25T00:33:05.243Z,101146.81
2022-07-25T00:38:27.933Z,101140.53
2022-07-25T00:43:51.319Z,101129.13
2022-07-25T00:49:14.241Z,101133.11
2022-07-25T00:54:37.284Z,101132.55
2022-07-25T00:59:59.708Z,101138.23
2022-07-25T01:05:24.808Z,101137.98
2022-07-25T01:10:49.706Z,101138.38
2022-07-25T01:16:12.359Z,101127.98
2022-07-25T01:21:36.787Z,101121.11
2022-07-25T01:26:59.084Z,101119.41
2022-07-25T01:32:21.613Z,101126.09
2022-07-25T01:37:45.541Z,101123.93
2022-07-25T01:43:08.249Z,101126.94
2022-07-25T01:48:31.416Z,101121.92
2022-07-25T01:53:53.790Z,101116.64
2022-07-25T01:59:16.167Z,101117.94
2022-07-25T02:04:38.589Z,101116.48
2022-07-25T02:10:00.913Z,101110.36
2022-07-25T02:15:23.971Z,101110.66
2022-07-25T02:20:46.389Z,101111.91
2022-07-25T02:26:09.943Z,101113.05
2022-07-25T02:31:32.292Z,101112.48
2022-07-25T02:36:54.514Z,101102.80
2022-07-25T02:42:16.957Z,101105.77
2022-07-25T02:47:40.811Z,101102.48
2022-07-25T02:53:03.263Z,101108.59
2022-07-25T02:58:25.646Z,101111.13
2022-07-25T03:03:48.126Z,101113.41
2022-07-25T03:09:10.812Z,101115.41
2022-07-25T03:14:33.148Z,101114.27
2022-07-25T03:19:57.044Z,101109.56
2022-07-25T03:25:23.201Z,101112.84
2022-07-25T03:30:45.627Z,101115.30
2022-07-25T03:36:08.006Z,101108.02
2022-07-25T03:41:31.048Z,101105.03
2022-07-25T03:46:53.683Z,101105.48
2022-07-25T03:52:16.045Z,101107.61
2022-07-25T03:57:38.508Z,101101.36
2022-07-25T04:03:00.734Z,101096.11
2022-07-25T04:08:23.729Z,101095.97
2022-07-25T04:13:46.098Z,101090.26
2022-07-25T04:19:08.901Z,101089.88
2022-07-25T04:24:31.202Z,101088.73
2022-07-25T04:29:53.502Z,101079.45
2022-07-25T04:35:19.891Z,101078.98
2022-07-25T04:40:43.134Z,101080.25
2022-07-25T04:46:05.555Z,101068.60
2022-07-25T04:51:28.740Z,101068.68
2022-07-25T04:56:51.312Z,101073.51
2022-07-25T05:02:14.902Z,101064.69
2022-07-25T05:07:37.421Z,101064.19
2022-07-25T05:12:59.811Z,101048.36
2022-07-25T05:18:22.762Z,101051.25
2022-07-25T05:23:46.185Z,101052.27
2022-07-25T05:29:08.999Z,101041.39
2022-07-25T05:34:31.733Z,101041.36
2022-07-25T05:39:54.076Z,101043.03
2022-07-25T05:45:19.597Z,101039.10
2022-07-25T05:50:44.366Z,101028.83
2022-07-25T05:56:07.842Z,101024.83
2022-07-25T06:01:34.818Z,101026.95
2022-07-25T06:06:58.351Z,101034.33
2022-07-25T06:12:21.237Z,101028.75
2022-07-25T06:17:46.015Z,101023.48
2022-07-25T06:23:08.540Z,101013.28
2022-07-25T06:28:31.455Z,101008.89
2022-07-25T06:33:54.055Z,101000.00
2022-07-25T06:39:17.634Z,101003.39
2022-07-25T06:44:41.616Z,100992.63
2022-07-25T06:50:04.065Z,100986.61
2022-07-25T06:55:29.899Z,100984.83
2022-07-25T07:00:53.031Z,100973.22
2022-07-25T07:06:15.669Z,100970.75
2022-07-25T07:11:37.885Z,100972.37
2022-07-25T07:17:00.367Z,100965.41
2022-07-25T07:22:23.388Z,100961.72
2022-07-25T07:27:46.747Z,100957.48
2022-07-25T07:33:09.492Z,100953.58
2022-07-25T07:38:32.894Z,100945.37
2022-07-25T07:43:55.639Z,100938.05
2022-07-25T07:49:18.879Z,100936.84
2022-07-25T07:54:59.518Z,100933.06
2022-07-25T08:00:23.552Z,100933.72
2022-07-25T08:05:52.749Z,100927.64
2022-07-25T08:11:15.177Z,100916.71
2022-07-25T08:16:37.478Z,100916.95
2022-07-25T08:22:00.707Z,100911.02
2022-07-25T08:27:22.997Z,100909.06
2022-07-25T08:32:58.553Z,100911.70
2022-07-25T08:38:23.277Z,100908.03
2022-07-25T08:43:47.676Z,100893.83
2022-07-25T08:49:10.891Z,100894.55
2022-07-25T08:54:33.852Z,100887.03
2022-07-25T08:59:56.784Z,100882.65
2022-07-25T09:05:20.478Z,100880.83
2022-07-25T09:10:49.204Z,100879.20
2022-07-25T09:16:13.282Z,100873.95
2022-07-25T09:21:37.544Z,100872.49
2022-07-25T09:27:12.610Z,100878.02
2022-07-25T09:32:36.604Z,100874.45
2022-07-25T09:37:59.065Z,100864.55
2022-07-25T09:43:21.343Z,100868.98
2022-07-25T09:48:45.731Z,100869.63
2022-07-25T09:54:13.078Z,100862.64
2022-07-25T09:59:35.391Z,100863.48
2022-07-25T10:05:08.992Z,100850.96
2022-07-25T10:10:47.188Z,100842.91
2022-07-25T10:16:23.024Z,100830.75
2022-07-25T10:21:45.777Z,100833.75
2022-07-25T10:27:23.465Z,100821.20
2022-07-25T10:32:48.202Z,100819.02
2022-07-25T10:38:12.820Z,100808.53
2022-07-25T10:43:44.613Z,100803.84
2022-07-25T10:49:12.878Z,100793.78
2022-07-25T10:54:40.232Z,100791.33
2022-07-25T11:00:05.181Z,100783.17
2022-07-25T11:05:30.256Z,100780.11
2022-07-25T11:10:54.455Z,100768.71
2022-07-25T11:16:18.133Z,100760.22
2022-07-25T11:21:42.336Z,100752.95
2022-07-25T11:27:12.156Z,100743.14
2022-07-25T11:32:33.051Z,100736.74
2022-07-25T11:37:58.494Z,100731.77
2022-07-25T11:43:27.055Z,100731.86
2022-07-25T11:48:56.911Z,100709.89
2022-07-25T11:54:21.906Z,100703.77
2022-07-25T11:59:50.300Z,100698.53
2022-07-25T12:05:20.536Z,100687.31
2022-07-25T12:10:52.804Z,100679.66
2022-07-25T12:16:17.664Z,100682.20
2022-07-25T12:21:41.543Z,100672.03
2022-07-25T12:27:04.308Z,100668.20
2022-07-25T12:32:26.621Z,100642.84
2022-07-25T12:37:50.084Z,100638.74
2022-07-25T12:43:13.671Z,100629.30
2022-07-25T12:48:35.960Z,100631.27
2022-07-25T12:53:58.183Z,100615.95
2022-07-25T12:59:22.239Z,100612.27
2022-07-25T13:04:44.696Z,100613.06
2022-07-25T13:10:07.204Z,100593.14
2022-07-25T13:15:30.749Z,100596.45
2022-07-25T13:20:54.961Z,100593.08
2022-07-25T13:26:27.436Z,100578.86
2022-07-25T13:31:50.658Z,100574.97
2022-07-25T13:37:13.813Z,100564.85
2022-07-25T13:42:36.313Z,100558.59
2022-07-25T13:48:18.935Z,100545.06
2022-07-25T13:59:04.751Z,100528.80
2022-07-25T14:04:27.938Z,100521.00
2022-07-25T14:09:51.043Z,100512.33
2022-07-25T14:20:50.488Z,100497.52
2022-07-25T14:26:14.823Z,100494.16
2022-07-25T14:31:39.187Z,100480.66
2022-07-25T14:37:01.711Z,100483.34
2022-07-25T14:42:24.106Z,100465.11
2022-07-25T14:47:48.323Z,100449.06
2022-07-25T14:53:11.183Z,100439.34
2022-07-25T14:58:34.375Z,100437.45
2022-07-25T15:03:57.391Z,100433.09
2022-07-25T15:09:20.898Z,100435.03
2022-07-25T15:14:44.431Z,100417.30
2022-07-25T15:20:06.662Z,100415.88
2022-07-25T15:26:00.631Z,100401.03
2022-07-25T15:30:53.146Z,100400.22
2022-07-25T15:36:15.503Z,100393.89
2022-07-25T15:41:38.669Z,100379.80
2022-07-25T15:47:01.251Z,100373.52
2022-07-25T15:52:25.409Z,100372.80
2022-07-25T15:57:48.597Z,100364.83
2022-07-25T16:03:12.538Z,100369.21
2022-07-25T16:08:35.451Z,100364.25
2022-07-25T16:13:57.742Z,100360.62
2022-07-25T16:19:19.994Z,100356.22
2022-07-25T16:24:43.087Z,100356.45
2022-07-25T16:30:05.689Z,100354.67
2022-07-25T16:35:28.171Z,100350.91
2022-07-25T16:40:50.357Z,100333.05
2022-07-25T16:46:13.683Z,100333.67
2022-07-25T16:51:37.293Z,100316.18
2022-07-25T16:57:00.031Z,100306.09
2022-07-25T17:02:27.522Z,100294.26
2022-07-25T17:07:46.901Z,100286.19
2022-07-25T17:13:09.735Z,100263.13
2022-07-25T17:18:32.632Z,100256.63
2022-07-25T17:23:56.624Z,100257.06
2022-07-25T17:29:19.459Z,100251.76
2022-07-25T17:34:41.965Z,100252.45
2022-07-25T17:40:05.392Z,100255.03
2022-07-25T17:45:28.584Z,100237.86
2022-07-25T17:50:52.652Z,100231.04
2022-07-25T17:56:15.956Z,100229.50
2022-07-25T18:01:38.329Z,100214.30
2022-07-25T18:07:00.732Z,100202.50
2022-07-25T18:12:29.068Z,100210.30
2022-07-25T18:17:48.825Z,100201.62
2022-07-25T18:23:24.784Z,100192.32
2022-07-25T18:28:48.476Z,100190.27
2022-07-25T18:34:11.758Z,100185.63
2022-07-25T18:39:34.653Z,100189.57
2022-07-25T18:44:56.845Z,100197.55
2022-07-25T18:55:52.166Z,100202.67
2022-07-25T19:01:14.478Z,100212.84
2022-07-25T19:06:36.948Z,100215.02
2022-07-25T19:12:01.380Z,100215.80
2022-07-25T19:17:24.955Z,100209.84
2022-07-25T19:22:48.282Z,100210.86
2022-07-25T19:28:10.883Z,100211.58
2022-07-25T19:33:35.939Z,100202.88
2022-07-25T19:38:57.512Z,100219.39
2022-07-25T19:44:21.121Z,100209.07
2022-07-25T19:49:43.594Z,100209.55
2022-07-25T19:55:06.004Z,100216.34
2022-07-25T20:00:28.762Z,100219.63
2022-07-25T20:05:51.257Z,100219.31
2022-07-25T20:11:13.986Z,100204.95
2022-07-25T20:16:39.053Z,100203.53
2022-07-25T20:22:02.545Z,100201.85
2022-07-25T20:27:24.899Z,100197.44
2022-07-25T20:32:47.349Z,100198.54
2022-07-25T20:38:10.433Z,100195.77
2022-07-25T20:43:33.547Z,100190.46
2022-07-25T20:48:55.938Z,100205.80
2022-07-25T20:54:19.044Z,100199.08
2022-07-25T20:59:41.287Z,100196.52
2022-07-25T21:05:03.551Z,100183.40
2022-07-25T21:10:27.630Z,100167.28
2022-07-25T21:15:52.126Z,100181.63
2022-07-25T21:21:18.032Z,100160.39
2022-07-25T21:26:43.098Z,100159.03
2022-07-25T21:32:05.474Z,100151.48
2022-07-25T21:37:28.579Z,100137.64
2022-07-25T21:42:50.743Z,100132.05
2022-07-25T21:48:13.396Z,100132.13
2022-07-25T21:53:35.552Z,100127.81
2022-07-25T21:58:57.742Z,100119.86
2022-07-25T22:04:21.422Z,100110.84
2022-07-25T22:09:44.292Z,100095.23
2022-07-25T22:15:06.893Z,100073.93
2022-07-25T22:20:31.934Z,100073.56
2022-07-25T22:25:54.573Z,100080.58
2022-07-25T22:31:17.244Z,100066.69
2022-07-25T22:36:40.050Z,100070.95
2022-07-25T22:42:02.922Z,100049.02
2022-07-25T22:47:25.629Z,100054.82
2022-07-25T22:52:48.953Z,100049.62
2022-07-25T22:58:11.773Z,100048.61
2022-07-25T23:03:34.716Z,100038.75
2022-07-25T23:08:58.554Z,100043.27
2022-07-25T23:14:21.410Z,100034.47
2022-07-25T23:19:44.055Z,100033.08
2022-07-25T23:25:09.427Z,100034.44
2022-07-25T23:30:38.002Z,100030.87
2022-07-25T23:35:57.241Z,100024.63
2022-07-25T23:41:19.596Z,100030.67
2022-07-25T23:46:43.017Z,100001.20
2022-07-25T23:52:07.811Z,99992.77
2022-07-25T23:57:30.654Z,100013.97
